createdAt,value
2019-04-26T00:01:18.770Z,18.34
2019-04-26T00:03:46.958Z,17.61
2019-04-26T00:06:15.041Z,17.40
2019-04-26T00:08:44.755Z,18.59
2019-04-26T00:11:44.852Z,18.16
2019-04-26T00:14:37.992Z,18.99
2019-04-26T00:17:10.164Z,18.76
2019-04-26T00:19:38.723Z,18.57
2019-04-26T00:22:06.503Z,18.35
2019-04-26T00:24:34.164Z,17.79
2019-04-26T00:27:01.523Z,17.55
2019-04-26T00:29:28.923Z,19.16
2019-04-26T00:31:56.284Z,18.98
2019-04-26T00:34:23.731Z,17.63
2019-04-26T00:36:51.088Z,17.90
2019-04-26T00:39:18.448Z,17.95
2019-04-26T00:41:46.263Z,18.15
2019-04-26T00:44:14.806Z,17.69
2019-04-26T00:46:45.550Z,19.10
2019-04-26T00:49:14.067Z,18.27
2019-04-26T00:51:42.986Z,19.40
2019-04-26T00:54:11.063Z,19.17
2019-04-26T00:56:39.298Z,18.47
2019-04-26T00:59:08.621Z,17.98
2019-04-26T01:01:39.307Z,17.69
2019-04-26T01:04:06.761Z,18.04
2019-04-26T01:06:36.441Z,19.27
2019-04-26T01:09:05.308Z,19.40
2019-04-26T01:11:32.643Z,17.92
2019-04-26T01:13:59.961Z,19.05
2019-04-26T01:16:27.301Z,19.32
2019-04-26T01:18:54.774Z,19.20
2019-04-26T01:21:24.726Z,18.80
2019-04-26T01:23:54.070Z,18.44
2019-04-26T01:26:27.485Z,18.81
2019-04-26T01:29:04.502Z,18.94
2019-04-26T01:31:36.182Z,17.70
2019-04-26T01:34:03.682Z,18.93
2019-04-26T01:36:31.443Z,19.14
2019-04-26T01:39:05.367Z,18.52
2019-04-26T01:41:43.655Z,17.89
2019-04-26T01:44:17.332Z,19.40
2019-04-26T01:46:46.424Z,18.09
2019-04-26T01:49:15.130Z,17.28
2019-04-26T01:51:51.426Z,16.95
2019-04-26T01:54:23.081Z,16.89
2019-04-26T01:56:54.611Z,18.24
2019-04-26T01:59:22.692Z,17.75
2019-04-26T02:02:26.030Z,17.36
2019-04-26T02:04:55.628Z,17.57
2019-04-26T02:07:38.196Z,17.45
2019-04-26T02:10:10.062Z,17.09
2019-04-26T02:12:38.006Z,17.10
2019-04-26T02:15:05.949Z,17.31
2019-04-26T02:17:33.654Z,16.46
2019-04-26T02:20:01.263Z,18.40
2019-04-26T02:22:35.923Z,18.01
2019-04-26T02:25:03.527Z,18.36
2019-04-26T02:27:30.947Z,17.02
2019-04-26T02:29:59.315Z,15.99
2019-04-26T02:32:28.889Z,16.10
2019-04-26T02:34:56.672Z,16.61
2019-04-26T02:37:24.172Z,16.40
2019-04-26T02:39:52.530Z,17.92
2019-04-26T02:42:39.264Z,18.05
2019-04-26T02:46:11.375Z,17.51
2019-04-26T02:48:57.001Z,16.76
2019-04-26T02:51:32.362Z,16.76
2019-04-26T02:54:24.672Z,18.67
2019-04-26T02:56:53.861Z,19.21
2019-04-26T02:59:34.018Z,19.72
2019-04-26T03:02:03.789Z,19.44
2019-04-26T03:04:32.683Z,19.66
2019-04-26T03:07:07.298Z,19.86
2019-04-26T03:09:37.003Z,19.60
2019-04-26T03:12:08.924Z,15.29
2019-04-26T03:15:12.618Z,15.24
2019-04-26T03:17:39.767Z,14.92
2019-04-26T03:20:12.652Z,15.26
2019-04-26T03:23:23.512Z,14.64
2019-04-26T03:26:12.854Z,16.73
2019-04-26T03:28:53.055Z,18.16
2019-04-26T03:31:38.982Z,19.09
2019-04-26T03:34:29.051Z,18.64
2019-04-26T03:37:37.893Z,18.46
2019-04-26T03:40:25.003Z,17.16
2019-04-26T03:43:26.359Z,16.35
2019-04-26T03:46:09.341Z,18.52
2019-04-26T03:49:05.624Z,16.26
2019-04-26T03:52:02.423Z,16.64
2019-04-26T03:54:30.771Z,15.66
2019-04-26T03:57:17.291Z,15.89
2019-04-26T03:59:56.955Z,19.55
2019-04-26T04:02:45.694Z,18.79
2019-04-26T04:05:37.909Z,17.73
2019-04-26T04:08:09.865Z,14.86
2019-04-26T04:10:50.505Z,14.30
2019-04-26T04:13:44.462Z,13.41
2019-04-26T04:16:43.019Z,13.85
2019-04-26T04:19:54.983Z,14.28
2019-04-26T04:22:23.795Z,13.59
2019-04-26T04:24:54.432Z,13.19
2019-04-26T04:27:28.643Z,13.30
2019-04-26T04:30:33.224Z,13.34
2019-04-26T04:33:17.577Z,13.02
2019-04-26T04:35:49.298Z,12.93
2019-04-26T04:38:33.226Z,12.90
2019-04-26T04:41:29.228Z,13.04
2019-04-26T04:44:16.190Z,13.32
2019-04-26T04:47:42.624Z,13.15
2019-04-26T04:50:30.081Z,12.90
2019-04-26T04:53:24.723Z,13.03
2019-04-26T04:56:37.498Z,13.20
2019-04-26T04:59:07.996Z,13.22
2019-04-26T05:02:18.453Z,12.69
2019-04-26T05:05:40.289Z,12.83
2019-04-26T05:08:35.114Z,12.97
2019-04-26T05:11:12.426Z,12.60
2019-04-26T05:13:46.260Z,12.83
2019-04-26T05:16:57.889Z,12.96
2019-04-26T05:19:58.647Z,12.75
2019-04-26T05:23:15.438Z,12.68
2019-04-26T05:26:50.212Z,12.92
2019-04-26T05:29:50.750Z,12.65
2019-04-26T05:32:44.560Z,12.84
2019-04-26T05:35:49.009Z,12.98
2019-04-26T05:38:55.362Z,13.13
2019-04-26T05:42:01.357Z,13.30
2019-04-26T05:45:29.279Z,13.09
2019-04-26T05:48:26.921Z,13.45
2019-04-26T05:51:38.350Z,13.62
2019-04-26T05:54:20.674Z,13.40
2019-04-26T05:57:36.721Z,13.65
2019-04-26T06:00:26.082Z,13.77
2019-04-26T06:03:28.989Z,13.85
2019-04-26T06:06:21.729Z,13.86
2019-04-26T06:09:13.907Z,14.15
2019-04-26T06:11:54.764Z,14.45
2019-04-26T06:14:52.894Z,14.49
2019-04-26T06:17:57.291Z,14.50
2019-04-26T06:20:42.541Z,14.63
2019-04-26T06:23:38.341Z,14.56
2019-04-26T06:26:36.317Z,14.52
2019-04-26T06:29:09.601Z,14.82
2019-04-26T06:31:48.846Z,14.74
2019-04-26T06:34:27.923Z,14.90
2019-04-26T06:37:33.789Z,15.14
2019-04-26T06:40:09.239Z,15.35
2019-04-26T06:43:03.161Z,15.69
2019-04-26T06:46:28.131Z,15.61
2019-04-26T06:49:35.949Z,15.32
2019-04-26T06:52:08.607Z,15.71
2019-04-26T06:55:02.206Z,14.71
2019-04-26T06:58:15.869Z,14.44
2019-04-26T07:00:59.250Z,14.68
2019-04-26T07:04:20.564Z,14.80
2019-04-26T07:07:17.666Z,14.89
2019-04-26T07:10:06.496Z,14.95
2019-04-26T07:12:46.871Z,14.89
2019-04-26T07:15:44.940Z,14.99
2019-04-26T07:18:51.006Z,15.20
2019-04-26T07:21:44.230Z,15.04
2019-04-26T07:24:45.006Z,15.30
2019-04-26T07:27:21.759Z,15.08
2019-04-26T07:30:23.405Z,15.64
2019-04-26T07:33:41.625Z,15.81
2019-04-26T07:36:32.491Z,16.13
2019-04-26T07:39:27.347Z,16.19
2019-04-26T07:42:34.570Z,16.31
2019-04-26T07:45:45.087Z,16.62
2019-04-26T07:48:57.240Z,16.31
2019-04-26T07:52:14.235Z,16.10
2019-04-26T07:55:08.995Z,16.08
2019-04-26T07:58:22.409Z,16.51
2019-04-26T08:01:00.829Z,16.69
2019-04-26T08:03:46.291Z,16.17
2019-04-26T08:06:24.265Z,15.85
2019-04-26T08:09:01.185Z,15.77
2019-04-26T08:11:35.601Z,15.70
2019-04-26T08:14:17.105Z,15.51
2019-04-26T08:17:05.398Z,15.57
2019-04-26T08:19:40.769Z,15.47
2019-04-26T08:22:18.471Z,15.48
2019-04-26T08:24:40.239Z,15.63
2019-04-26T08:27:22.783Z,15.71
2019-04-26T08:29:45.691Z,16.00
2019-04-26T08:32:21.901Z,16.14
2019-04-26T08:35:02.259Z,16.06
2019-04-26T08:37:53.693Z,16.32
2019-04-26T08:40:30.643Z,16.58
2019-04-26T08:43:27.330Z,16.79
2019-04-26T08:46:15.876Z,17.21
2019-04-26T08:49:06.675Z,17.22
2019-04-26T08:51:35.820Z,17.54
2019-04-26T08:54:07.765Z,17.41
2019-04-26T08:56:39.453Z,17.54
2019-04-26T08:59:18.400Z,17.93
2019-04-26T09:02:15.933Z,17.63
2019-04-26T09:04:54.131Z,17.89
2019-04-26T09:07:28.082Z,17.98
2019-04-26T09:09:57.661Z,18.43
2019-04-26T09:12:27.582Z,18.22
2019-04-26T09:14:58.545Z,18.21
2019-04-26T09:17:27.843Z,17.98
2019-04-26T09:19:58.009Z,17.37
2019-04-26T09:22:49.609Z,18.30
2019-04-26T09:25:39.218Z,17.90
2019-04-26T09:28:13.080Z,17.81
2019-04-26T09:30:52.470Z,17.65
2019-04-26T09:33:37.847Z,17.55
2019-04-26T09:36:05.418Z,17.51
2019-04-26T09:38:33.009Z,17.51
2019-04-26T09:41:00.598Z,16.91
2019-04-26T09:43:37.930Z,16.89
2019-04-26T09:46:27.899Z,17.10
2019-04-26T09:49:17.394Z,16.50
2019-04-26T09:51:44.812Z,16.60
2019-04-26T09:54:12.259Z,15.63
2019-04-26T09:56:39.641Z,16.31
2019-04-26T09:59:07.036Z,15.58
2019-04-26T10:01:35.059Z,15.88
2019-04-26T10:04:02.458Z,15.20
2019-04-26T10:06:31.040Z,15.36
2019-04-26T10:08:58.588Z,15.51
2019-04-26T10:11:29.926Z,15.76
2019-04-26T10:14:02.295Z,15.32
2019-04-26T10:16:42.171Z,14.43
2019-04-26T10:19:11.327Z,14.42
2019-04-26T10:21:38.646Z,14.85
2019-04-26T10:24:08.281Z,14.54
2019-04-26T10:26:35.289Z,13.84
2019-04-26T10:29:02.661Z,14.10
2019-04-26T10:31:29.985Z,14.23
2019-04-26T10:33:57.340Z,13.72
2019-04-26T10:36:26.264Z,14.05
2019-04-26T10:38:54.518Z,14.17
2019-04-26T10:41:23.350Z,14.04
2019-04-26T10:43:50.810Z,13.22
2019-04-26T10:46:18.233Z,13.40
2019-04-26T10:48:49.658Z,13.31
2019-04-26T10:51:17.286Z,13.10
2019-04-26T10:53:56.792Z,13.43
2019-04-26T10:56:37.587Z,13.42
2019-04-26T10:59:22.791Z,13.27
2019-04-26T11:01:50.578Z,12.85
2019-04-26T11:04:17.963Z,13.14
2019-04-26T11:06:45.420Z,13.06
2019-04-26T11:09:12.882Z,13.15
2019-04-26T11:11:40.229Z,13.07
2019-04-26T11:14:07.655Z,12.95
2019-04-26T11:16:37.126Z,12.48
2019-04-26T11:19:04.514Z,12.60
2019-04-26T11:21:31.886Z,12.22
2019-04-26T11:23:59.222Z,12.54
2019-04-26T11:26:26.625Z,12.22
2019-04-26T11:28:55.780Z,12.31
2019-04-26T11:31:27.182Z,12.50
2019-04-26T11:34:04.430Z,12.41
2019-04-26T11:36:21.656Z,12.63
2019-04-26T11:38:49.143Z,12.54
2019-04-26T11:41:16.482Z,12.29
2019-04-26T11:43:43.814Z,11.80
2019-04-26T11:46:11.169Z,11.99
2019-04-26T11:48:38.507Z,11.78
2019-04-26T11:51:05.910Z,11.65
2019-04-26T11:53:33.595Z,11.11
2019-04-26T11:56:04.516Z,11.10
2019-04-26T11:58:30.602Z,11.24
2019-04-26T12:01:00.954Z,10.87
2019-04-26T12:03:28.260Z,11.10
2019-04-26T12:06:15.269Z,11.19
2019-04-26T12:08:55.112Z,11.56
2019-04-26T12:11:31.350Z,11.68
2019-04-26T12:13:55.267Z,11.34
2019-04-26T12:16:21.115Z,10.95
2019-04-26T12:18:48.512Z,10.96
2019-04-26T12:21:15.820Z,10.97
2019-04-26T12:23:43.164Z,10.64
2019-04-26T12:26:10.567Z,11.03
2019-04-26T12:28:39.917Z,10.78
2019-04-26T12:31:07.277Z,10.46
2019-04-26T12:33:34.672Z,10.66
2019-04-26T12:36:02.167Z,10.26
2019-04-26T12:38:30.102Z,10.39
2019-04-26T12:40:58.253Z,9.92
2019-04-26T12:43:26.150Z,10.18
2019-04-26T12:46:14.111Z,10.18
2019-04-26T12:48:41.052Z,10.02
2019-04-26T12:51:12.071Z,10.04
2019-04-26T12:53:40.624Z,10.06
2019-04-26T12:56:07.036Z,9.62
2019-04-26T12:58:34.482Z,9.95
2019-04-26T13:01:01.960Z,9.24
2019-04-26T13:03:30.415Z,8.96
2019-04-26T13:05:59.132Z,8.60
2019-04-26T13:08:26.761Z,8.29
2019-04-26T13:11:25.063Z,8.51
2019-04-26T13:14:03.218Z,8.27
2019-04-26T13:16:40.450Z,9.23
2019-04-26T13:19:07.908Z,8.95
2019-04-26T13:21:37.254Z,8.29
2019-04-26T13:24:06.207Z,7.83
2019-04-26T13:26:34.665Z,7.70
2019-04-26T13:29:03.083Z,8.01
2019-04-26T13:31:31.737Z,8.08
2019-04-26T13:34:03.032Z,8.36
2019-04-26T13:36:29.274Z,8.43
2019-04-26T13:38:58.020Z,8.45
2019-04-26T13:41:27.943Z,8.68
2019-04-26T13:43:57.194Z,8.16
2019-04-26T13:46:48.503Z,8.58
2019-04-26T13:49:31.776Z,8.48
2019-04-26T13:51:59.140Z,8.55
2019-04-26T13:54:26.507Z,8.40
2019-04-26T13:56:53.890Z,8.68
2019-04-26T13:59:21.354Z,8.37
2019-04-26T14:01:48.726Z,7.95
2019-04-26T14:04:16.104Z,8.29
2019-04-26T14:06:43.562Z,7.98
2019-04-26T14:09:12.717Z,8.69
2019-04-26T14:11:40.209Z,8.22
2019-04-26T14:14:07.522Z,8.55
2019-04-26T14:16:35.131Z,8.09
2019-04-26T14:19:02.720Z,8.41
2019-04-26T14:21:33.125Z,8.35
2019-04-26T14:24:04.897Z,8.19
2019-04-26T14:26:40.015Z,8.20
2019-04-26T14:29:07.161Z,8.29
2019-04-26T14:31:34.570Z,8.46
2019-04-26T14:34:05.528Z,8.15
2019-04-26T14:36:31.303Z,8.53
2019-04-26T14:39:05.607Z,8.09
2019-04-26T14:41:28.034Z,7.83
2019-04-26T14:43:56.786Z,8.12
2019-04-26T14:46:24.650Z,7.90
2019-04-26T14:49:01.443Z,7.84
2019-04-26T14:51:21.346Z,8.52
2019-04-26T14:53:48.797Z,8.45
2019-04-26T14:56:16.264Z,8.14
2019-04-26T14:58:43.599Z,7.89
2019-04-26T15:01:16.639Z,8.30
2019-04-26T15:03:51.380Z,7.86
2019-04-26T15:06:22.238Z,7.78
2019-04-26T15:08:50.581Z,7.89
2019-04-26T15:11:17.961Z,8.19
2019-04-26T15:13:45.388Z,8.18
2019-04-26T15:16:14.321Z,8.03
2019-04-26T15:18:42.629Z,8.35
2019-04-26T15:21:10.284Z,8.03
2019-04-26T15:23:37.602Z,8.47
2019-04-26T15:26:05.169Z,8.29
2019-04-26T15:28:33.149Z,8.20
2019-04-26T15:31:02.297Z,8.12
2019-04-26T15:33:29.867Z,8.87
2019-04-26T15:35:57.252Z,8.65
2019-04-26T15:38:24.894Z,8.17
2019-04-26T15:41:23.969Z,8.50
2019-04-26T15:44:29.725Z,8.85
2019-04-26T15:47:11.022Z,7.93
2019-04-26T15:50:11.063Z,7.91
2019-04-26T15:52:38.569Z,8.19
2019-04-26T15:55:06.241Z,9.46
2019-04-26T15:57:34.712Z,8.69
2019-04-26T16:00:04.161Z,8.71
2019-04-26T16:02:32.930Z,8.48
2019-04-26T16:05:00.289Z,8.78
2019-04-26T16:07:29.150Z,8.83
2019-04-26T16:09:57.588Z,8.70
2019-04-26T16:12:27.152Z,8.72
2019-04-26T16:14:54.559Z,8.57
2019-04-26T16:17:21.976Z,8.56
2019-04-26T16:19:50.662Z,8.67
2019-04-26T16:22:18.049Z,8.85
2019-04-26T16:24:45.496Z,8.74
2019-04-26T16:27:12.945Z,8.33
2019-04-26T16:29:59.512Z,8.31
2019-04-26T16:32:47.173Z,8.21
2019-04-26T16:35:12.857Z,8.30
2019-04-26T16:37:40.178Z,8.25
2019-04-26T16:40:12.416Z,8.57
2019-04-26T16:42:38.199Z,8.05
2019-04-26T16:45:07.896Z,7.93
2019-04-26T16:47:45.101Z,8.23
2019-04-26T16:50:05.668Z,7.65
2019-04-26T16:52:33.750Z,7.87
2019-04-26T16:55:04.183Z,7.86
2019-04-26T16:57:33.538Z,7.89
2019-04-26T17:00:04.219Z,8.59
2019-04-26T17:02:34.984Z,7.78
2019-04-26T17:05:04.555Z,8.32
2019-04-26T17:07:29.009Z,7.40
2019-04-26T17:09:59.398Z,7.59
2019-04-26T17:12:25.598Z,7.51
2019-04-26T17:14:54.292Z,7.39
2019-04-26T17:17:22.412Z,7.41
2019-04-26T17:19:49.996Z,7.78
2019-04-26T17:22:44.731Z,7.39
2019-04-26T17:25:27.103Z,7.48
2019-04-26T17:27:54.761Z,7.62
2019-04-26T17:30:24.239Z,7.16
2019-04-26T17:32:53.541Z,7.22
2019-04-26T17:35:20.969Z,7.81
2019-04-26T17:37:48.308Z,8.34
2019-04-26T17:40:15.728Z,7.16
2019-04-26T17:42:43.209Z,7.45
2019-04-26T17:45:10.934Z,7.55
2019-04-26T17:47:42.445Z,7.33
2019-04-26T17:50:11.023Z,7.31
2019-04-26T17:52:40.919Z,6.94
2019-04-26T17:55:11.919Z,8.06
2019-04-26T17:57:42.359Z,6.92
2019-04-26T18:00:13.380Z,7.06
2019-04-26T18:02:43.381Z,6.90
2019-04-26T18:05:08.280Z,6.81
2019-04-26T18:07:44.250Z,7.36
2019-04-26T18:10:10.420Z,7.19
2019-04-26T18:12:40.769Z,7.85
2019-04-26T18:15:10.321Z,7.19
2019-04-26T18:18:04.402Z,7.49
2019-04-26T18:20:49.832Z,7.24
2019-04-26T18:23:19.027Z,7.30
2019-04-26T18:25:46.568Z,7.61
2019-04-26T18:28:16.072Z,7.41
2019-04-26T18:30:46.660Z,7.41
2019-04-26T18:33:13.532Z,7.34
2019-04-26T18:35:43.472Z,7.51
2019-04-26T18:38:12.524Z,7.74
2019-04-26T18:40:58.905Z,7.58
2019-04-26T18:43:12.465Z,7.64
2019-04-26T18:45:44.466Z,7.38
2019-04-26T18:48:13.844Z,7.64
2019-04-26T18:50:45.715Z,7.39
2019-04-26T18:53:36.687Z,7.18
2019-04-26T18:56:03.394Z,7.05
2019-04-26T18:58:34.808Z,7.12
2019-04-26T19:01:05.160Z,7.16
2019-04-26T19:03:39.613Z,7.24
2019-04-26T19:06:10.022Z,7.38
2019-04-26T19:08:47.638Z,7.17
2019-04-26T19:11:11.823Z,7.50
2019-04-26T19:14:06.340Z,7.17
2019-04-26T19:16:40.486Z,7.21
2019-04-26T19:19:22.431Z,7.07
2019-04-26T19:21:46.990Z,7.90
2019-04-26T19:24:19.504Z,7.59
2019-04-26T19:26:49.823Z,6.97
2019-04-26T19:29:18.727Z,7.67
2019-04-26T19:31:46.796Z,7.64
2019-04-26T19:34:17.794Z,8.14
2019-04-26T19:36:45.660Z,7.14
2019-04-26T19:39:13.301Z,8.00
2019-04-26T19:41:42.014Z,7.96
2019-04-26T19:44:14.660Z,7.92
2019-04-26T19:47:03.247Z,7.59
2019-04-26T19:49:47.800Z,6.86
2019-04-26T19:52:42.520Z,7.22
2019-04-26T19:55:32.358Z,7.93
2019-04-26T19:58:20.092Z,6.53
2019-04-26T20:00:46.737Z,6.97
2019-04-26T20:03:16.619Z,7.16
2019-04-26T20:05:44.142Z,7.73
2019-04-26T20:08:12.678Z,7.27
2019-04-26T20:10:40.784Z,7.86
2019-04-26T20:13:15.252Z,6.79
2019-04-26T20:15:39.598Z,6.92
2019-04-26T20:18:07.220Z,6.87
2019-04-26T20:20:37.219Z,7.27
2019-04-26T20:23:07.765Z,6.98
2019-04-26T20:25:34.579Z,7.03
2019-04-26T20:28:05.663Z,6.91
2019-04-26T20:30:45.304Z,6.55
2019-04-26T20:33:14.139Z,6.28
2019-04-26T20:35:42.437Z,6.74
2019-04-26T20:38:11.740Z,6.73
2019-04-26T20:40:43.428Z,6.58
2019-04-26T20:43:20.978Z,6.37
2019-04-26T20:46:02.054Z,6.80
2019-04-26T20:48:11.243Z,6.70
2019-04-26T20:50:47.456Z,6.70
2019-04-26T20:53:15.102Z,6.95
2019-04-26T20:55:42.795Z,6.48
2019-04-26T20:58:11.787Z,6.69
2019-04-26T21:00:53.789Z,6.64
2019-04-26T21:03:22.742Z,6.34
2019-04-26T21:05:46.484Z,6.16
2019-04-26T21:08:13.141Z,6.29
2019-04-26T21:10:41.798Z,6.45
2019-04-26T21:13:09.831Z,6.56
2019-04-26T21:15:51.962Z,6.17
2019-04-26T21:18:08.305Z,5.99
2019-04-26T21:20:36.552Z,5.89
2019-04-26T21:23:04.213Z,6.26
2019-04-26T21:25:54.363Z,6.53
2019-04-26T21:28:42.131Z,6.70
2019-04-26T21:31:15.774Z,6.24
2019-04-26T21:33:47.205Z,5.85
2019-04-26T21:36:43.809Z,6.00
2019-04-26T21:39:39.432Z,5.73
2019-04-26T21:42:08.303Z,6.20
2019-04-26T21:44:35.778Z,5.72
2019-04-26T21:47:03.407Z,7.16
2019-04-26T21:49:32.733Z,6.33
2019-04-26T21:52:00.689Z,6.97
2019-04-26T21:54:28.044Z,6.08
2019-04-26T21:56:55.398Z,5.86
2019-04-26T21:59:24.355Z,6.41
2019-04-26T22:01:58.849Z,6.34
2019-04-26T22:04:22.779Z,5.97
2019-04-26T22:06:51.136Z,5.73
2019-04-26T22:09:55.976Z,5.91
2019-04-26T22:12:27.302Z,6.38
2019-04-26T22:15:03.506Z,5.78
2019-04-26T22:17:40.437Z,6.23
2019-04-26T22:20:34.269Z,5.81
2019-04-26T22:23:30.390Z,6.84
2019-04-26T22:26:00.102Z,6.40
2019-04-26T22:28:31.326Z,7.02
2019-04-26T22:30:59.481Z,6.66
2019-04-26T22:33:27.434Z,6.67
2019-04-26T22:35:58.486Z,6.78
2019-04-26T22:38:26.740Z,6.99
2019-04-26T22:40:56.138Z,6.60
2019-04-26T22:43:39.400Z,5.85
2019-04-26T22:46:47.234Z,5.99
2019-04-26T22:49:07.845Z,6.01
2019-04-26T22:51:37.222Z,6.61
2019-04-26T22:54:06.151Z,7.14
2019-04-26T22:56:37.175Z,6.30
2019-04-26T22:59:07.681Z,5.80
2019-04-26T23:01:33.015Z,5.95
2019-04-26T23:04:03.337Z,6.03
2019-04-26T23:06:30.947Z,5.80
2019-04-26T23:08:58.469Z,5.77
2019-04-26T23:11:25.937Z,6.48
2019-04-26T23:14:19.139Z,6.79
2019-04-26T23:17:08.348Z,6.77
2019-04-26T23:19:57.358Z,6.91
2019-04-26T23:22:30.805Z,6.58
2019-04-26T23:24:57.907Z,6.91
2019-04-26T23:27:23.719Z,6.72
2019-04-26T23:29:56.776Z,6.47
2019-04-26T23:32:20.622Z,6.78
2019-04-26T23:34:47.964Z,6.92
2019-04-26T23:37:15.342Z,6.20
2019-04-26T23:39:49.261Z,6.58
2019-04-26T23:42:12.295Z,6.06
2019-04-26T23:44:41.221Z,6.01
2019-04-26T23:47:20.916Z,5.49
2019-04-26T23:49:37.859Z,6.36
2019-04-26T23:52:05.185Z,5.84
2019-04-26T23:54:35.877Z,6.07
2019-04-26T23:57:02.892Z,6.65
2019-04-26T23:59:30.328Z,7.07
